Terminal Aerodrome Forecast
Issued by NWS

Home | Current Version | Previous Version | Text Only | Print | Product List | Glossary On
Versions: 1 2 3 4 5 6 7 8 9 10 11 12 13 14 15 16 17 18 19 20 21 22 23 24 25 26 27 28
000
FTAK31 PAFA 272320
TAFASC
TAF
PASC 272320Z 2800/2824 08020KT P6SM OVC007
     FM280600 07020KT 4SM BR BKN004 OVC007
     FM281300 07013KT 1 1/2SM BR OVC003
     FM282100 07013KT P6SM OVC007=

USA.gov is the U.S. government's official web portal to all federal, state and local government web resources and services.